Time;durP1;ratioP1;P1;durP2;ratioP2;P2;SDS_P1;SDS_P2;PMS_P1;PMS_P2;Temp;Humidity;BMP_temperature;BMP_pressure;BME280_temperature;BME280_humidity;BME280_pressure;Samples;Min_cycle;Max_cycle;Signal;HPM_P1;HPM_P2
2023/12/30 00:01:48;;;;;;;115.37;51.78;;;;;;;5.84;81.21;98082.31;4487718;32;20024;-83
2023/12/30 00:04:15;;;;;;;;;;;;;;;5.32;83.72;98078.41;4488089;32;20457;-83
2023/12/30 00:06:43;;;;;;;134.77;59.13;;;;;;;4.74;86.99;98077.00;4487839;32;19978;-83
2023/12/30 00:09:10;;;;;;;138.95;59.90;;;;;;;4.37;92.37;98067.44;4487743;32;20096;-83
2023/12/30 00:11:37;;;;;;;125.80;55.50;;;;;;;4.62;90.06;98070.41;4487900;32;20093;-83
2023/12/30 00:14:04;;;;;;;67.65;30.77;;;;;;;5.19;87.14;98076.06;4487394;32;20477;-84
2023/12/30 00:16:31;;;;;;;30.70;14.85;;;;;;;4.53;89.28;98081.63;4487523;32;20073;-83
2023/12/30 00:18:58;;;;;;;41.65;18.12;;;;;;;5.14;86.25;98071.94;4487959;32;20378;-83
2023/12/30 00:21:25;;;;;;;42.90;19.83;;;;;;;4.75;86.21;98076.12;4487625;32;20461;-83
2023/12/30 00:23:52;;;;;;;24.27;11.82;;;;;;;4.87;84.69;98078.44;4487710;32;20098;-83
2023/12/30 00:26:23;;;;;;;;;;;;;;;5.54;81.53;98081.31;4473576;32;20080;-83
2023/12/30 00:28:50;;;;;;;38.03;16.83;;;;;;;5.40;81.14;98077.31;4487704;32;19979;-83
2023/12/30 00:31:24;;;;;;;40.35;19.12;;;;;;;5.23;81.51;98080.25;4473718;32;20105;-83
2023/12/30 00:33:52;;;;;;;28.75;14.32;;;;;;;5.48;79.43;98075.44;4473326;32;20099;-83
2023/12/30 00:36:20;;;;;;;38.63;19.02;;;;;;;5.69;77.66;98073.28;4487446;32;20449;-83
2023/12/30 00:38:46;;;;;;;;;;;;;;;5.11;80.28;98070.28;4488182;32;20100;-84
2023/12/30 00:41:13;;;;;;;35.63;15.68;;;;;;;4.34;85.02;98075.16;4473781;32;20576;-83
2023/12/30 00:43:43;;;;;;;;;;;;;;;4.51;86.47;98074.88;4487564;32;20430;-83
2023/12/30 00:46:10;;;;;;;38.83;16.87;;;;;;;4.59;86.13;98076.41;4487573;32;19972;-83
2023/12/30 00:48:36;;;;;;;33.65;15.57;;;;;;;4.48;88.31;98080.03;4487795;32;20172;-83
2023/12/30 00:51:03;;;;;;;28.55;13.80;;;;;;;5.21;84.33;98076.06;4487388;32;20336;-84
2023/12/30 00:53:31;;;;;;;40.08;18.77;;;;;;;5.34;83.62;98068.97;4487652;32;20088;-84
2023/12/30 00:55:58;;;;;;;38.05;16.80;;;;;;;5.19;82.57;98070.94;4473404;32;20119;-83
2023/12/30 00:58:24;;;;;;;;;;;;;;;5.34;81.13;98068.97;4487638;32;20092;-84
2023/12/30 01:00:52;;;;;;;37.08;17.05;;;;;;;5.01;82.97;98062.84;4487698;32;19990;-83
2023/12/30 01:03:19;;;;;;;49.60;22.62;;;;;;;5.63;78.44;98061.47;4487319;32;20423;-84
2023/12/30 01:05:46;;;;;;;40.63;17.75;;;;;;;5.42;79.11;98057.69;4487207;32;20137;-83
2023/12/30 01:08:13;;;;;;;48.58;21.80;;;;;;;4.96;80.75;98057.78;4487623;32;20101;-83
2023/12/30 01:10:40;;;;;;;56.78;26.08;;;;;;;5.22;79.44;98054.72;4487353;32;20096;-83
2023/12/30 01:13:07;;;;;;;33.80;15.13;;;;;;;3.85;85.51;98062.38;4472694;32;20144;-83
2023/12/30 01:15:34;;;;;;;27.73;12.07;;;;;;;3.62;93.63;98063.56;4487168;32;20068;-83
2023/12/30 01:18:02;;;;;;;26.70;12.88;;;;;;;3.59;95.95;98050.00;4487441;32;20107;-83
2023/12/30 01:20:30;;;;;;;31.85;14.02;;;;;;;3.91;93.94;98052.88;4473332;32;20149;-84
2023/12/30 01:22:57;;;;;;;24.15;10.80;;;;;;;4.49;89.95;98064.69;4487633;32;20096;-83
2023/12/30 01:25:24;;;;;;;21.12;8.82;;;;;;;4.01;92.01;98071.44;4487015;32;20088;-83
2023/12/30 01:27:51;;;;;;;;;;;;;;;4.27;88.95;98059.09;4487707;32;20485;-83
2023/12/30 01:30:18;;;;;;;19.92;7.87;;;;;;;4.37;88.67;98061.50;4487457;32;19975;-83
2023/12/30 01:32:45;;;;;;;19.48;8.45;;;;;;;4.73;86.14;98071.03;4487074;32;20092;-83
2023/12/30 01:35:14;;;;;;;21.33;9.48;;;;;;;4.03;87.26;98067.16;4486965;32;20068;-83
2023/12/30 01:37:41;;;;;;;19.20;9.43;;;;;;;4.31;87.25;98062.44;4487272;32;20104;-83
2023/12/30 01:40:08;;;;;;;;;;;;;;;4.52;84.74;98061.22;4487436;32;20153;-84
2023/12/30 01:42:35;;;;;;;19.30;8.48;;;;;;;4.12;88.34;98067.00;4487342;32;19972;-83
2023/12/30 01:45:02;;;;;;;;;;;;;;;4.05;87.97;98058.63;4487206;32;20114;-83
2023/12/30 01:47:29;;;;;;;20.67;8.23;;;;;;;4.29;88.46;98065.03;4487026;32;19980;-83
2023/12/30 01:49:56;;;;;;;22.13;8.27;;;;;;;4.42;88.99;98057.13;4473051;32;20109;-83
2023/12/30 01:52:23;;;;;;;21.25;9.57;;;;;;;4.66;88.60;98049.00;4486981;32;20080;-83
2023/12/30 01:54:50;;;;;;;19.23;8.88;;;;;;;4.92;86.67;98051.91;4486926;32;20583;-83
2023/12/30 01:57:17;;;;;;;21.58;8.43;;;;;;;5.41;85.63;98055.13;4486980;32;20404;-83
2023/12/30 01:59:44;;;;;;;;;;;;;;;5.36;85.94;98049.28;4487235;32;20630;-83
2023/12/30 02:02:11;;;;;;;21.10;8.43;;;;;;;5.42;86.60;98054.25;4487076;32;19992;-83
2023/12/30 02:04:38;;;;;;;19.60;8.70;;;;;;;5.43;87.28;98051.69;4486728;32;20111;-83
2023/12/30 02:07:05;;;;;;;18.15;8.60;;;;;;;5.70;86.21;98049.37;4472396;32;20163;-83
2023/12/30 02:09:32;;;;;;;19.37;8.50;;;;;;;5.22;87.62;98047.03;4486820;32;20573;-83
2023/12/30 02:11:59;;;;;;;20.85;9.25;;;;;;;5.38;87.33;98047.53;4472726;32;20084;-83
2023/12/30 02:14:28;;;;;;;18.42;8.45;;;;;;;5.47;85.86;98040.50;4486374;32;20106;-83
2023/12/30 02:16:55;;;;;;;19.17;8.98;;;;;;;5.68;85.55;98048.56;4486563;32;20108;-84
2023/12/30 02:19:23;;;;;;;20.70;9.75;;;;;;;5.64;84.01;98049.53;4472743;32;20440;-83
2023/12/30 02:21:51;;;;;;;22.23;9.20;;;;;;;5.40;82.82;98035.56;4486459;32;20088;-83
2023/12/30 02:24:21;;;;;;;24.00;11.05;;;;;;;5.43;80.54;98045.75;4487070;32;20428;-83
2023/12/30 02:26:48;;;;;;;22.87;11.00;;;;;;;5.03;82.80;98030.41;4488498;32;20096;-83
2023/12/30 02:29:14;;;;;;;;;;;;;;;4.79;84.45;98039.41;4488898;32;20088;-83
2023/12/30 02:31:47;;;;;;;28.90;14.18;;;;;;;5.09;82.93;98032.81;4488763;32;19990;-83
2023/12/30 02:34:18;;;;;;;32.78;14.40;;;;;;;4.61;85.38;98032.94;4488304;32;20095;-83
2023/12/30 02:36:46;;;;;;;41.55;19.02;;;;;;;4.36;89.10;98040.22;4488185;32;20108;-83
2023/12/30 02:39:14;;;;;;;25.37;11.25;;;;;;;4.80;86.79;98026.59;4474703;32;20132;-83
2023/12/30 02:41:41;;;;;;;23.90;9.88;;;;;;;4.62;88.62;98022.69;4488369;32;20103;-83
2023/12/30 02:44:07;;;;;;;;;;;;;;;5.42;87.89;98031.22;4488760;32;20092;-83
2023/12/30 02:46:34;;;;;;;27.60;11.55;;;;;;;5.58;87.63;98032.59;4474311;32;19979;-83
2023/12/30 02:49:03;;;;;;;36.90;15.48;;;;;;;5.46;86.79;98020.91;4488281;32;20585;-83
2023/12/30 02:51:30;;;;;;;39.10;16.02;;;;;;;5.75;81.93;98032.19;4488467;32;20084;-84
2023/12/30 02:53:59;;;;;;;24.70;11.73;;;;;;;5.23;84.99;98030.81;4488359;32;20088;-83
2023/12/30 02:56:27;;;;;;;31.40;14.65;;;;;;;4.99;86.75;98015.97;4473869;32;20516;-83
2023/12/30 02:58:56;;;;;;;53.87;26.23;;;;;;;5.49;85.79;98025.94;4488498;32;20110;-83
2023/12/30 03:01:25;;;;;;;34.75;16.60;;;;;;;5.48;85.39;98026.00;4488340;32;20095;-83
2023/12/30 03:03:53;;;;;;;26.80;12.98;;;;;;;5.61;84.46;98021.44;4487990;32;20383;-83
2023/12/30 03:06:21;;;;;;;24.55;12.25;;;;;;;5.81;85.83;98022.62;4488215;32;20097;-83
2023/12/30 03:08:49;;;;;;;31.48;13.85;;;;;;;5.91;86.37;98028.41;4488375;32;20100;-83
2023/12/30 03:11:16;;;;;;;48.00;21.92;;;;;;;5.74;87.62;98023.69;4474090;32;20103;-83
2023/12/30 03:13:43;;;;;;;42.20;18.67;;;;;;;5.54;87.25;98022.47;4474188;32;20540;-83
2023/12/30 03:16:11;;;;;;;45.60;20.65;;;;;;;5.03;89.71;98021.00;4488203;32;20545;-83
2023/12/30 03:18:38;;;;;;;26.98;13.43;;;;;;;5.37;86.98;98025.38;4488095;32;20079;-83
2023/12/30 03:21:09;;;;;;;56.40;27.23;;;;;;;6.04;83.84;98023.81;4488291;32;20096;-83
2023/12/30 03:23:37;;;;;;;48.92;24.40;;;;;;;5.42;85.20;98029.53;4488259;32;20132;-83
2023/12/30 03:26:05;;;;;;;33.17;15.88;;;;;;;5.69;82.59;98024.66;4473855;32;20097;-83
2023/12/30 03:28:32;;;;;;;24.27;11.12;;;;;;;5.71;81.30;98028.00;4488228;32;20147;-83
2023/12/30 03:30:59;;;;;;;18.77;8.63;;;;;;;4.84;87.02;98024.81;4488063;32;20462;-83
2023/12/30 03:33:27;;;;;;;21.55;9.68;;;;;;;5.32;85.46;98030.62;4474142;32;20076;-84
2023/12/30 03:35:54;;;;;;;26.42;11.20;;;;;;;5.33;87.51;98032.31;4487356;32;20101;-83
2023/12/30 03:38:21;;;;;;;25.35;11.10;;;;;;;5.07;88.31;98026.87;4487970;32;20199;-83
2023/12/30 03:40:48;;;;;;;21.60;10.00;;;;;;;5.01;89.66;98025.31;4488135;32;20147;-83
2023/12/30 03:43:15;;;;;;;;;;;;;;;5.33;89.83;98034.03;4488479;32;20077;-83
2023/12/30 03:45:42;;;;;;;24.25;9.95;;;;;;;5.44;90.37;98038.03;4487670;32;20031;-83
2023/12/30 03:48:08;;;;;;;22.35;10.82;;;;;;;5.72;90.17;98037.38;4488174;32;20093;-83
2023/12/30 03:50:37;;;;;;;24.20;10.80;;;;;;;5.82;89.93;98031.16;4488062;32;20080;-83
2023/12/30 03:53:07;;;;;;;22.45;10.90;;;;;;;5.58;90.02;98037.69;4487961;32;20080;-83
2023/12/30 03:55:34;;;;;;;23.08;10.40;;;;;;;5.69;91.07;98033.19;4487883;32;20097;-83
2023/12/30 03:58:00;;;;;;;;;;;;;;;5.74;90.97;98035.63;4488339;32;20104;-83
2023/12/30 04:00:27;;;;;;;22.48;10.80;;;;;;;5.79;89.93;98049.16;4487742;32;19986;-83
2023/12/30 04:02:54;;;;;;;22.52;9.80;;;;;;;5.89;87.86;98049.78;4487995;32;20135;-83
2023/12/30 04:05:22;;;;;;;21.95;10.68;;;;;;;5.06;90.57;98038.84;4487427;32;20120;-83
2023/12/30 04:07:50;;;;;;;26.00;10.90;;;;;;;4.96;93.39;98036.50;4487684;32;20151;-83
2023/12/30 04:10:17;;;;;;;27.13;11.73;;;;;;;5.27;91.62;98044.38;4488049;32;20084;-83
2023/12/30 04:12:44;;;;;;;21.45;10.23;;;;;;;5.34;93.21;98051.06;4487669;32;20103;-83
2023/12/30 04:15:11;;;;;;;22.15;10.45;;;;;;;5.40;95.47;98053.47;4487725;32;20474;-82
2023/12/30 04:17:38;;;;;;;22.70;10.25;;;;;;;5.20;97.56;98049.59;4487894;32;20084;-83
2023/12/30 04:20:05;;;;;;;23.92;11.23;;;;;;;5.36;96.29;98056.97;4487539;32;20088;-83
2023/12/30 04:22:33;;;;;;;24.10;10.68;;;;;;;5.42;96.27;98054.25;4487872;32;20084;-83
2023/12/30 04:25:00;;;;;;;21.40;10.55;;;;;;;5.60;95.05;98070.94;4487832;26;20109;-83
2023/12/30 04:27:27;;;;;;;23.75;11.18;;;;;;;5.62;95.45;98072.56;4487488;31;20115;-83
2023/12/30 04:29:54;;;;;;;;;;;;;;;5.73;94.11;98080.84;4488156;31;20084;-83
2023/12/30 04:32:21;;;;;;;19.83;10.07;;;;;;;5.99;92.40;98087.13;4487948;32;20031;-83
2023/12/30 04:34:48;;;;;;;27.95;10.63;;;;;;;5.60;92.95;98081.19;4487412;31;20096;-83
2023/12/30 04:37:17;;;;;;;22.35;10.57;;;;;;;5.42;94.47;98073.03;4487714;31;20168;-83
2023/12/30 04:39:44;;;;;;;22.52;10.85;;;;;;;5.79;93.82;98090.97;4487791;31;20118;-83
2023/12/30 04:42:11;;;;;;;;;;;;;;;5.99;92.49;98093.09;4487670;31;20084;-83
2023/12/30 04:44:38;;;;;;;22.95;10.52;;;;;;;6.04;92.52;98093.81;4487357;31;19994;-83
2023/12/30 04:47:06;;;;;;;25.50;10.73;;;;;;;6.12;91.66;98100.50;4486609;31;20152;-83
2023/12/30 04:49:33;;;;;;;23.90;10.95;;;;;;;5.86;93.39;98099.38;4487398;32;20084;-83
2023/12/30 04:52:00;;;;;;;25.65;10.73;;;;;;;5.58;95.02;98093.16;4487694;31;20140;-83
2023/12/30 04:54:30;;;;;;;22.08;10.27;;;;;;;5.67;96.13;98096.37;4487608;31;20168;-83
2023/12/30 04:56:57;;;;;;;22.48;10.65;;;;;;;5.86;95.74;98089.13;4487218;31;20115;-82
2023/12/30 04:59:26;;;;;;;24.42;11.82;;;;;;;6.09;95.08;98092.00;4487729;32;20085;-83
2023/12/30 05:01:54;;;;;;;22.10;11.00;;;;;;;5.93;96.90;98097.50;4487403;31;20444;-83
2023/12/30 05:04:21;;;;;;;23.38;10.30;;;;;;;5.77;99.05;98094.44;4487627;31;20122;-83
2023/12/30 05:06:48;;;;;;;26.00;11.10;;;;;;;5.92;97.92;98093.28;4487322;31;20161;-83
2023/12/30 05:09:15;;;;;;;23.05;11.00;;;;;;;5.61;100.00;98093.09;4487339;31;20457;-83
2023/12/30 05:11:48;;;;;;;24.08;11.52;;;;;;;5.89;99.21;98095.87;4487481;31;20469;-83
2023/12/30 05:14:15;;;;;;;25.00;10.98;;;;;;;5.57;100.00;98089.78;4497381;26;20098;-82
2023/12/30 05:16:45;;;;;;;25.02;11.12;;;;;;;6.08;98.01;98092.88;4502793;31;20104;-83
2023/12/30 05:19:12;;;;;;;23.17;11.12;;;;;;;6.19;97.67;98095.19;4489202;31;20083;-83
2023/12/30 05:21:40;;;;;;;22.40;10.25;;;;;;;6.16;98.91;98100.38;4489092;31;20138;-82
2023/12/30 05:26:39;;;;;;;24.20;10.18;;;;;;;6.14;98.19;98101.28;4485404;32;20147;-82
2023/12/30 05:29:06;;;;;;;;;;;;;;;6.22;97.27;98100.22;4487800;32;20141;-82
2023/12/30 05:31:33;;;;;;;21.37;10.82;;;;;;;6.13;98.17;98102.16;4487082;32;19987;-83
2023/12/30 05:34:00;;;;;;;21.85;11.30;;;;;;;6.27;96.51;98111.22;4487121;32;20092;-83
2023/12/30 05:36:27;;;;;;;24.30;10.13;;;;;;;5.92;98.34;98109.47;4487232;32;20131;-82
2023/12/30 05:38:54;;;;;;;;;;;;;;;5.68;98.91;98112.56;4473103;32;20179;-82
2023/12/30 05:41:20;;;;;;;22.67;10.40;;;;;;;5.71;98.30;98110.78;4487382;32;20040;-82
2023/12/30 05:43:47;;;;;;;23.48;10.45;;;;;;;6.05;96.54;98108.31;4487183;32;20479;-83
2023/12/30 05:46:16;;;;;;;21.33;10.82;;;;;;;6.02;96.33;98115.22;4472435;32;20144;-82
2023/12/30 05:48:43;;;;;;;23.50;10.52;;;;;;;5.94;96.07;98123.09;4487192;32;20080;-83
2023/12/30 05:51:11;;;;;;;25.92;12.10;;;;;;;5.67;97.64;98118.56;4472964;32;20431;-83
2023/12/30 05:53:40;;;;;;;25.15;10.80;;;;;;;5.47;100.00;98104.47;4487190;32;20145;-82
2023/12/30 05:56:07;;;;;;;24.20;11.63;;;;;;;5.48;100.00;98118.13;4472863;32;20100;-82
2023/12/30 05:58:34;;;;;;;25.95;10.95;;;;;;;5.45;100.00;98116.47;4486559;32;20080;-82
2023/12/30 06:01:02;;;;;;;23.27;11.40;;;;;;;5.62;99.41;98117.81;4487034;32;20077;-83
2023/12/30 06:03:29;;;;;;;24.02;11.30;;;;;;;5.51;100.00;98124.00;4486960;32;20498;-82
2023/12/30 06:05:56;;;;;;;24.30;11.93;;;;;;;5.57;100.00;98122.19;4486353;32;20080;-82
2023/12/30 06:08:22;;;;;;;;;;;;;;;5.40;100.00;98130.22;4487160;32;20780;-83
2023/12/30 06:10:53;;;;;;;23.52;10.48;;;;;;;5.70;100.00;98127.00;4486943;32;19982;-83
2023/12/30 06:13:20;;;;;;;26.15;12.23;;;;;;;5.91;100.00;98133.41;4486540;32;20089;-83
2023/12/30 06:15:49;;;;;;;24.98;11.32;;;;;;;5.97;100.00;98128.16;4510270;26;20128;-82
2023/12/30 06:18:17;;;;;;;24.42;12.05;;;;;;;6.25;98.57;98130.91;4440112;32;20139;-82
2023/12/30 06:20:45;;;;;;;24.20;11.93;;;;;;;5.62;100.00;98133.16;4451379;32;20158;-82
2023/12/30 06:23:13;;;;;;;25.67;12.30;;;;;;;5.20;100.00;98126.34;4439909;32;20461;-83
2023/12/30 06:25:40;;;;;;;23.45;12.25;;;;;;;5.50;100.00;98131.72;4467438;26;20142;-82
2023/12/30 06:28:07;;;;;;;25.75;12.00;;;;;;;5.79;100.00;98128.53;4470656;32;20105;-83
2023/12/30 06:30:35;;;;;;;26.20;12.10;;;;;;;6.21;100.00;98143.81;4470845;32;20097;-82
2023/12/30 06:33:06;;;;;;;26.62;12.15;;;;;;;6.32;99.10;98126.47;4470856;32;20477;-82
2023/12/30 06:35:34;;;;;;;26.92;12.73;;;;;;;6.26;98.83;98144.53;4470692;32;20160;-82
2023/12/30 06:38:02;;;;;;;26.20;12.15;;;;;;;6.54;97.26;98145.56;4456684;32;20145;-82
2023/12/30 06:40:29;;;;;;;26.50;12.30;;;;;;;6.51;98.44;98149.94;4470497;32;20145;-82
2023/12/30 06:42:56;;;;;;;24.05;11.40;;;;;;;6.56;98.45;98151.50;4470676;32;20096;-82
2023/12/30 06:45:23;;;;;;;26.35;11.90;;;;;;;6.43;96.93;98154.41;4480127;26;20101;-82
2023/12/30 06:47:50;;;;;;;26.00;11.70;;;;;;;6.38;95.58;98163.06;4470281;32;20426;-83
2023/12/30 06:50:19;;;;;;;27.13;12.57;;;;;;;6.43;95.21;98154.41;4470680;32;20089;-83
2023/12/30 06:52:48;;;;;;;29.92;12.48;;;;;;;6.38;95.97;98167.34;4470729;32;20097;-82
2023/12/30 06:55:15;;;;;;;25.42;11.95;;;;;;;6.09;98.23;98170.56;4469539;32;20100;-82
2023/12/30 06:57:52;;;;;;;27.75;12.07;;;;;;;6.16;99.78;98174.66;4470234;32;20126;-82
2023/12/30 07:00:20;;;;;;;26.12;12.37;;;;;;;6.33;98.95;98172.56;4470580;32;20451;-83
2023/12/30 07:02:47;;;;;;;29.05;12.90;;;;;;;6.61;97.84;98185.56;4470194;32;20093;-82
2023/12/30 07:05:14;;;;;;;24.85;12.05;;;;;;;6.66;97.33;98186.28;4470068;32;20101;-82
2023/12/30 07:07:41;;;;;;;25.05;11.57;;;;;;;6.51;99.06;98188.38;4470490;32;20427;-83
2023/12/30 07:10:08;;;;;;;25.90;12.23;;;;;;;6.62;99.69;98192.38;4470338;32;20119;-83
2023/12/30 07:12:35;;;;;;;26.85;12.70;;;;;;;6.74;99.06;98198.06;4472675;32;20093;-83
2023/12/30 07:15:02;;;;;;;;;;;;;;;6.93;98.01;98197.56;4472779;32;20096;-82
2023/12/30 07:17:29;;;;;;;29.10;12.73;;;;;;;7.15;97.10;98209.84;4472461;32;19976;-83
2023/12/30 07:19:56;;;;;;;23.85;11.93;;;;;;;7.51;94.74;98197.72;4472589;32;20145;-83
2023/12/30 07:22:24;;;;;;;27.73;12.43;;;;;;;7.71;92.94;98210.00;4472304;32;20433;-83
2023/12/30 07:24:51;;;;;;;24.95;12.15;;;;;;;7.72;92.65;98204.81;4472659;32;20116;-83
2023/12/30 07:27:18;;;;;;;25.65;12.98;;;;;;;8.07;89.49;98196.06;4472465;32;20554;-82
2023/12/30 07:29:45;;;;;;;20.80;10.68;;;;;;;8.20;89.76;98201.69;4472260;32;20089;-83
2023/12/30 07:32:12;;;;;;;24.73;11.15;;;;;;;8.75;83.87;98210.25;4472542;32;20088;-82
2023/12/30 07:34:39;;;;;;;;;;;;;;;8.32;84.89;98209.03;4472784;32;20127;-82
2023/12/30 07:37:06;;;;;;;21.12;10.43;;;;;;;8.64;82.28;98217.47;4472009;32;19972;-82
2023/12/30 07:39:33;;;;;;;19.58;9.52;;;;;;;8.96;79.87;98226.72;4472490;32;20492;-82
2023/12/30 07:42:00;;;;;;;21.77;10.77;;;;;;;9.26;77.81;98223.09;4472369;32;20093;-82
2023/12/30 07:44:28;;;;;;;;;;;;;;;9.16;76.88;98229.47;4472304;32;20531;-83
2023/12/30 07:46:55;;;;;;;20.37;9.80;;;;;;;8.96;78.13;98224.97;4472209;32;19960;-83
2023/12/30 07:49:21;;;;;;;;;;;;;;;8.73;79.60;98231.78;4472655;32;20432;-83
2023/12/30 07:51:49;;;;;;;18.35;9.65;;;;;;;9.36;76.94;98244.22;4472152;32;20036;-82
2023/12/30 07:54:16;;;;;;;20.50;9.60;;;;;;;9.42;76.30;98251.72;4472446;32;20088;-82
2023/12/30 07:56:43;;;;;;;18.50;9.00;;;;;;;9.23;77.31;98243.78;4472109;32;20093;-83
2023/12/30 07:59:10;;;;;;;;;;;;;;;9.20;77.13;98243.06;4472452;32;20144;-83
2023/12/30 08:01:46;;;;;;;19.75;9.48;;;;;;;9.01;77.70;98244.56;4472426;32;20501;-82
2023/12/30 08:04:13;;;;;;;18.83;9.20;;;;;;;9.38;76.48;98245.00;4458692;32;20127;-83
2023/12/30 08:06:40;;;;;;;18.80;8.35;;;;;;;9.77;74.37;98241.91;4471809;32;20085;-82
2023/12/30 08:09:09;;;;;;;17.58;8.73;;;;;;;10.02;73.50;98252.16;4472346;32;20073;-82
2023/12/30 08:11:36;;;;;;;18.77;8.68;;;;;;;10.36;70.84;98250.00;4471944;32;20097;-83
2023/12/30 08:14:20;;;;;;;18.27;9.23;;;;;;;10.32;70.52;98257.94;4472135;32;20097;-83
2023/12/30 08:16:47;;;;;;;18.55;8.50;;;;;;;10.64;68.91;98261.84;4472132;32;20107;-83
2023/12/30 08:19:14;;;;;;;;;;;;;;;10.49;68.53;98258.09;4472221;32;20397;-83
2023/12/30 08:21:41;;;;;;;19.92;9.38;;;;;;;9.91;70.39;98249.97;4472269;32;19972;-82
2023/12/30 08:24:09;;;;;;;;;;;;;;;9.81;72.37;98252.06;4472443;32;20111;-82
2023/12/30 08:26:36;;;;;;;19.12;8.95;;;;;;;10.11;71.22;98259.56;4471442;32;19979;-83
2023/12/30 08:29:02;;;;;;;;;;;;;;;10.73;68.91;98270.03;4472458;32;20469;-83
2023/12/30 08:31:29;;;;;;;19.02;9.70;;;;;;;10.86;69.99;98269.56;4472084;32;19976;-83
2023/12/30 08:33:56;;;;;;;18.23;9.50;;;;;;;10.62;68.60;98276.53;4457600;32;20485;-83
2023/12/30 08:36:24;;;;;;;18.73;9.43;;;;;;;11.12;66.44;98271.91;4471788;32;20089;-83
2023/12/30 08:38:51;;;;;;;17.77;8.73;;;;;;;11.53;64.85;98277.94;4472016;32;20099;-83
2023/12/30 08:41:23;;;;;;;17.90;8.40;;;;;;;11.40;65.41;98273.38;4471782;32;20436;-83
2023/12/30 08:43:55;;;;;;;16.73;8.73;;;;;;;11.48;65.08;98279.03;4472142;32;20151;-83
2023/12/30 08:46:22;;;;;;;17.12;7.87;;;;;;;11.20;66.17;98287.09;4471452;32;20153;-83
2023/12/30 08:48:49;;;;;;;16.12;7.40;;;;;;;11.11;66.92;98287.47;4471907;32;20092;-83
2023/12/30 08:51:16;;;;;;;15.45;7.55;;;;;;;11.35;66.69;98288.19;4472024;32;20104;-83
2023/12/30 08:53:43;;;;;;;;;;;;;;;11.64;66.37;98290.38;4472020;32;20108;-83
2023/12/30 08:56:10;;;;;;;16.27;6.90;;;;;;;11.59;64.80;98294.94;4471941;32;20307;-83
2023/12/30 08:58:37;;;;;;;;;;;;;;;11.54;65.18;98292.53;4472256;32;20085;-82
2023/12/30 09:01:04;;;;;;;14.65;7.22;;;;;;;11.69;65.14;98300.53;4471746;32;20359;-83
2023/12/30 09:03:31;;;;;;;14.87;6.82;;;;;;;12.25;61.81;98298.06;4472068;32;20166;-83
2023/12/30 09:05:58;;;;;;;14.02;7.30;;;;;;;12.20;62.24;98297.41;4471588;32;20432;-82
2023/12/30 09:08:26;;;;;;;16.00;7.62;;;;;;;11.83;63.47;98295.63;4471558;32;20076;-83
2023/12/30 09:10:53;;;;;;;16.87;8.27;;;;;;;11.69;65.06;98293.59;4471896;32;20096;-82
2023/12/30 09:13:21;;;;;;;14.48;7.55;;;;;;;11.65;65.80;98297.25;4471849;32;20129;-83
2023/12/30 09:15:48;;;;;;;14.90;7.22;;;;;;;11.83;64.83;98309.41;4471242;32;20127;-83
2023/12/30 09:18:15;;;;;;;16.37;8.05;;;;;;;12.11;65.11;98300.41;4471772;32;20088;-83
2023/12/30 09:20:43;;;;;;;15.13;7.97;;;;;;;12.42;63.17;98294.69;4471797;32;20399;-83
2023/12/30 09:23:10;;;;;;;13.62;7.20;;;;;;;12.49;62.58;98303.84;4471514;32;20111;-83
2023/12/30 09:25:37;;;;;;;15.40;7.37;;;;;;;12.70;62.04;98300.25;4471488;32;20093;-82
2023/12/30 09:28:04;;;;;;;16.40;7.75;;;;;;;12.95;60.58;98304.25;4471699;32;20170;-83
2023/12/30 09:30:31;;;;;;;14.98;7.32;;;;;;;12.74;61.94;98298.34;4457444;32;20146;-83
2023/12/30 09:32:58;;;;;;;15.35;7.85;;;;;;;13.43;60.79;98303.66;4471161;32;20092;-83
2023/12/30 09:35:26;;;;;;;15.77;7.57;;;;;;;13.70;57.75;98304.00;4471489;32;20491;-82
2023/12/30 09:37:53;;;;;;;16.12;7.82;;;;;;;13.65;57.07;98306.00;4471414;32;20420;-83
2023/12/30 09:40:19;;;;;;;;;;;;;;;13.34;58.27;98306.69;4471959;32;20184;-82
2023/12/30 09:42:48;;;;;;;16.75;6.95;;;;;;;13.08;58.67;98305.38;4471406;32;19976;-83
2023/12/30 09:45:15;;;;;;;13.82;6.85;;;;;;;13.04;58.69;98301.22;4471173;32;20117;-83
2023/12/30 09:47:44;;;;;;;13.77;6.87;;;;;;;12.87;59.76;98296.88;4457499;32;20431;-82
2023/12/30 09:50:11;;;;;;;15.68;7.12;;;;;;;13.13;59.76;98305.12;4457195;32;20097;-83
2023/12/30 09:52:38;;;;;;;15.00;6.70;;;;;;;13.37;59.24;98292.75;4471510;32;20716;-82
2023/12/30 09:55:05;;;;;;;14.80;6.82;;;;;;;13.50;57.58;98292.03;4471213;32;20096;-82
2023/12/30 09:57:32;;;;;;;18.45;7.12;;;;;;;14.67;54.13;98292.78;4471159;32;20627;-83
2023/12/30 09:59:59;;;;;;;;;;;;;;;14.45;53.47;98287.91;4471677;32;20108;-83
2023/12/30 10:02:26;;;;;;;14.48;7.10;;;;;;;14.52;54.76;98292.78;4471474;32;20018;-83
2023/12/30 10:04:53;;;;;;;13.85;6.22;;;;;;;15.01;51.48;98289.13;4470854;32;20111;-83
2023/12/30 10:07:21;;;;;;;12.43;6.28;;;;;;;15.38;51.41;98291.38;4471172;32;20073;-83
2023/12/30 10:09:50;;;;;;;14.55;7.22;;;;;;;15.62;50.62;98289.94;4471125;32;20097;-83
2023/12/30 10:12:17;;;;;;;14.43;6.80;;;;;;;15.62;50.32;98287.34;4470988;32;20097;-83
2023/12/30 10:14:44;;;;;;;15.27;7.25;;;;;;;15.90;49.52;98284.78;4471105;32;20106;-83
2023/12/30 10:17:11;;;;;;;13.90;7.28;;;;;;;16.00;49.72;98292.88;4470895;32;20073;-83
2023/12/30 10:19:38;;;;;;;15.35;6.85;;;;;;;16.04;49.62;98280.50;4470934;32;20105;-83
2023/12/30 10:22:05;;;;;;;13.00;6.68;;;;;;;16.49;48.35;98295.91;4456914;32;20383;-83
2023/12/30 10:24:32;;;;;;;15.68;6.90;;;;;;;16.92;46.83;98285.37;4470924;32;20393;-83
2023/12/30 10:27:04;;;;;;;13.70;6.87;;;;;;;17.19;46.46;98295.75;4470479;32;20349;-83
2023/12/30 10:29:31;;;;;;;13.20;6.60;;;;;;;17.25;44.83;98297.16;4471060;32;20094;-83
2023/12/30 10:32:12;;;;;;;11.98;6.35;;;;;;;17.28;45.65;98284.72;4458431;32;20100;-84
2023/12/30 10:34:40;;;;;;;14.30;7.03;;;;;;;17.72;43.87;98293.16;4456783;32;20431;-83
2023/12/30 10:37:08;;;;;;;15.23;8.27;;;;;;;17.55;44.60;98297.72;4470584;32;20095;-83
2023/12/30 10:39:37;;;;;;;14.82;8.00;;;;;;;17.17;45.80;98297.62;4470646;32;20108;-84
2023/12/30 10:42:06;;;;;;;13.60;6.72;;;;;;;17.54;45.05;98293.41;4470787;32;20100;-83
2023/12/30 10:44:33;;;;;;;13.43;6.80;;;;;;;17.50;44.48;98299.78;4456840;32;20084;-83
2023/12/30 10:47:01;;;;;;;13.52;6.20;;;;;;;17.49;44.07;98286.84;4472110;32;20137;-83
2023/12/30 10:49:28;;;;;;;13.07;6.22;;;;;;;17.29;45.06;98286.41;4458713;32;20109;-83
2023/12/30 10:51:57;;;;;;;13.95;5.95;;;;;;;17.53;44.65;98289.13;4472842;32;20156;-83
2023/12/30 10:54:32;;;;;;;12.68;5.87;;;;;;;17.79;44.33;98290.03;4458559;32;20435;-83
2023/12/30 10:57:03;;;;;;;12.23;6.05;;;;;;;17.43;44.07;98285.47;4458696;32;20103;-83
2023/12/30 10:59:30;;;;;;;13.48;6.10;;;;;;;17.28;45.00;98276.91;4472750;32;20108;-83
2023/12/30 11:01:57;;;;;;;13.85;6.47;;;;;;;17.17;46.50;98278.56;4472510;32;20111;-83
2023/12/30 11:04:25;;;;;;;11.52;5.65;;;;;;;16.98;47.94;98266.72;4458574;32;20092;-83
2023/12/30 11:06:56;;;;;;;11.60;5.53;;;;;;;16.78;47.45;98262.78;4472183;32;20690;-83
2023/12/30 11:09:30;;;;;;;10.15;5.12;;;;;;;16.65;48.58;98255.84;4472721;32;20471;-83
2023/12/30 11:12:01;;;;;;;10.30;5.07;;;;;;;17.24;46.33;98256.37;4459064;32;20100;-83
2023/12/30 11:14:28;;;;;;;10.10;4.80;;;;;;;16.97;47.69;98254.63;4472303;32;20088;-83
2023/12/30 11:16:57;;;;;;;9.85;4.43;;;;;;;16.57;47.60;98239.84;4472393;32;20102;-83
2023/12/30 11:19:28;;;;;;;10.18;4.50;;;;;;;16.16;49.34;98246.75;4472828;32;20158;-83
2023/12/30 11:22:02;;;;;;;13.27;4.78;;;;;;;16.44;49.44;98250.22;4472365;32;20341;-83
2023/12/30 11:24:29;;;;;;;9.82;4.18;;;;;;;16.06;50.40;98240.44;4472582;32;20134;-83
2023/12/30 11:26:56;;;;;;;10.10;4.43;;;;;;;16.33;49.40;98232.66;4472261;32;20077;-83
2023/12/30 11:29:25;;;;;;;10.00;4.53;;;;;;;16.26;49.56;98226.16;4458329;32;20112;-83
2023/12/30 11:31:54;;;;;;;10.77;4.25;;;;;;;16.09;49.18;98229.00;4458590;32;20160;-84
2023/12/30 11:34:22;;;;;;;9.40;4.00;;;;;;;16.29;47.75;98225.16;4472500;32;20098;-83
2023/12/30 11:36:52;;;;;;;10.93;4.00;;;;;;;16.15;47.98;98229.44;4472015;32;20123;-83
2023/12/30 11:39:38;;;;;;;8.63;3.70;;;;;;;16.05;48.12;98230.94;4458841;32;20143;-83